Buritinopolis, Brazil
Current Conditions -  °F | °C
As of 4:00 PM on Saturday 20 Dec 2014 (Local Time) from SBBR Reporting Station
Broken Clouds Broken Clouds  
Wind Chill: 82°   Ceiling: 3000
Heat Index: 84°   Visibility: 6mi
Dew Point: 64°   Wind: 14mph
Humidity: 54%   Direction: 350°N
Pressure: 29.94"   Gusts: NA
Location:  14.46°S, 46.44°W
Report Text: SBBR 201800Z 35012KT 9999 BKN030 FEW040TCU 28/18 Q1014
Loading
Personal Weather Stations






























Interactive Weather Map New forecast layout! Learn more

10-Day Weather Forecast

Advertisements
Track Severe Weather on mobile